METAR Data
IDs: Format: Raw Decoded Include TAF

Data at: 0152 UTC 21 Mar 2019

METAR for:KJAQ (Jackson/Westover Fld, CA, US)
Text:KJAQ 210135Z AUTO 03007KT 10SM CLR 09/07 A3002 RMK AO1 T00850068
Temperature: 8.5°C ( 47°F)
Dewpoint: 6.8°C ( 44°F) [RH = 89%]
Pressure (altimeter):30.02 inches Hg (1016.7 mb)
Winds:from the NNE (30 degrees) at 8 MPH (7 knots; 3.6 m/s)
Visibility:10 or more sm (16+ km)
Ceiling:at least 12,000 feet AGL
Clouds:sky clear below 12,000 feet AGL
QC Flag:automated observation with no human augmentation
Text:KJAQ 210115Z AUTO 01003KT 10SM SCT042 SCT048 SCT100 09/08 A3002 RMK AO1 T00860075
Temperature: 8.6°C ( 47°F)
Dewpoint: 7.5°C ( 46°F) [RH = 93%]
Pressure (altimeter):30.02 inches Hg (1016.7 mb)
Winds:from the N (10 degrees) at 3 MPH (3 knots; 1.5 m/s)
Visibility:10 or more sm (16+ km)
Ceiling:at least 12,000 feet AGL
Clouds: scattered clouds at 4200 feet AGL, scattered clouds at 4800 feet AGL, scattered clouds at 10000 feet AGL
QC Flag:automated observation with no human augmentation
Text:KJAQ 210055Z AUTO 36005KT 10SM BKN042 BKN047 OVC050 09/09 A3002 RMK AO1 T00880085
Temperature: 8.8°C ( 48°F)
Dewpoint: 8.5°C ( 47°F) [RH = 98%]
Pressure (altimeter):30.02 inches Hg (1016.7 mb)
Winds:from the N (360 degrees) at 6 MPH (5 knots; 2.6 m/s)
Visibility:10 or more sm (16+ km)
Ceiling:4200 feet AGL
Clouds: broken clouds at 4200 feet AGL, broken clouds at 4700 feet AGL, overcast cloud deck at 5000 feet AGL
QC Flag:automated observation with no human augmentation